sensor_id;sensor_type;location;lat;lon;timestamp;P1;durP1;ratioP1;P2;durP2;ratioP2
7645;SDS011;3864;48.180;14.178;2024-02-15T00:01:13;13.80;;;9.93;;
7645;SDS011;3864;48.180;14.178;2024-02-15T00:03:41;16.02;;;10.23;;
7645;SDS011;3864;48.180;14.178;2024-02-15T00:06:08;16.98;;;10.05;;
7645;SDS011;3864;48.180;14.178;2024-02-15T00:08:37;14.82;;;10.57;;
7645;SDS011;3864;48.180;14.178;2024-02-15T00:11:04;15.50;;;9.75;;
7645;SDS011;3864;48.180;14.178;2024-02-15T00:13:31;16.90;;;10.23;;
7645;SDS011;3864;48.180;14.178;2024-02-15T00:15:58;14.90;;;9.95;;
7645;SDS011;3864;48.180;14.178;2024-02-15T00:18:26;14.73;;;9.13;;
7645;SDS011;3864;48.180;14.178;2024-02-15T00:20:53;15.15;;;9.52;;
7645;SDS011;3864;48.180;14.178;2024-02-15T00:23:20;13.57;;;9.40;;
7645;SDS011;3864;48.180;14.178;2024-02-15T00:25:48;13.93;;;8.82;;
7645;SDS011;3864;48.180;14.178;2024-02-15T00:28:17;14.68;;;8.73;;
7645;SDS011;3864;48.180;14.178;2024-02-15T00:30:45;16.77;;;10.15;;
7645;SDS011;3864;48.180;14.178;2024-02-15T00:33:12;20.83;;;9.52;;
7645;SDS011;3864;48.180;14.178;2024-02-15T00:35:39;15.07;;;9.45;;
7645;SDS011;3864;48.180;14.178;2024-02-15T00:38:08;13.95;;;9.25;;
7645;SDS011;3864;48.180;14.178;2024-02-15T00:40:36;12.23;;;8.40;;
7645;SDS011;3864;48.180;14.178;2024-02-15T00:43:05;15.32;;;9.18;;
7645;SDS011;3864;48.180;14.178;2024-02-15T00:45:32;10.55;;;8.57;;
7645;SDS011;3864;48.180;14.178;2024-02-15T00:47:59;16.35;;;9.50;;
7645;SDS011;3864;48.180;14.178;2024-02-15T00:50:26;13.98;;;8.70;;
7645;SDS011;3864;48.180;14.178;2024-02-15T00:52:53;16.80;;;9.10;;
7645;SDS011;3864;48.180;14.178;2024-02-15T00:55:20;15.07;;;9.65;;
7645;SDS011;3864;48.180;14.178;2024-02-15T00:57:47;16.15;;;9.52;;
7645;SDS011;3864;48.180;14.178;2024-02-15T01:00:17;12.90;;;8.45;;
7645;SDS011;3864;48.180;14.178;2024-02-15T01:02:45;11.15;;;8.15;;
7645;SDS011;3864;48.180;14.178;2024-02-15T01:05:12;11.40;;;8.02;;
7645;SDS011;3864;48.180;14.178;2024-02-15T01:07:40;10.93;;;7.75;;
7645;SDS011;3864;48.180;14.178;2024-02-15T01:10:08;12.00;;;8.35;;
7645;SDS011;3864;48.180;14.178;2024-02-15T01:12:35;13.80;;;8.65;;
7645;SDS011;3864;48.180;14.178;2024-02-15T01:15:02;14.02;;;9.00;;
7645;SDS011;3864;48.180;14.178;2024-02-15T01:17:32;12.40;;;8.55;;
7645;SDS011;3864;48.180;14.178;2024-02-15T01:19:59;11.93;;;9.02;;
7645;SDS011;3864;48.180;14.178;2024-02-15T01:22:26;11.27;;;8.57;;
7645;SDS011;3864;48.180;14.178;2024-02-15T01:24:53;11.63;;;8.45;;
7645;SDS011;3864;48.180;14.178;2024-02-15T01:27:22;13.95;;;9.75;;
7645;SDS011;3864;48.180;14.178;2024-02-15T01:29:50;15.07;;;9.18;;
7645;SDS011;3864;48.180;14.178;2024-02-15T01:32:17;14.23;;;8.90;;
7645;SDS011;3864;48.180;14.178;2024-02-15T01:34:46;12.15;;;8.95;;
7645;SDS011;3864;48.180;14.178;2024-02-15T01:37:16;18.08;;;9.73;;
7645;SDS011;3864;48.180;14.178;2024-02-15T01:39:43;11.05;;;8.20;;
7645;SDS011;3864;48.180;14.178;2024-02-15T01:42:10;11.73;;;8.68;;
7645;SDS011;3864;48.180;14.178;2024-02-15T01:44:39;12.32;;;8.48;;
7645;SDS011;3864;48.180;14.178;2024-02-15T01:47:09;12.90;;;8.30;;
7645;SDS011;3864;48.180;14.178;2024-02-15T01:49:37;11.48;;;8.35;;
7645;SDS011;3864;48.180;14.178;2024-02-15T01:52:08;12.32;;;9.00;;
7645;SDS011;3864;48.180;14.178;2024-02-15T01:54:36;11.00;;;8.38;;
7645;SDS011;3864;48.180;14.178;2024-02-15T01:57:03;11.77;;;8.48;;
7645;SDS011;3864;48.180;14.178;2024-02-15T01:59:33;12.02;;;9.05;;
7645;SDS011;3864;48.180;14.178;2024-02-15T02:02:01;14.13;;;9.63;;
7645;SDS011;3864;48.180;14.178;2024-02-15T02:04:30;12.20;;;9.50;;
7645;SDS011;3864;48.180;14.178;2024-02-15T02:06:57;12.52;;;9.18;;
7645;SDS011;3864;48.180;14.178;2024-02-15T02:12:19;13.60;;;8.98;;
7645;SDS011;3864;48.180;14.178;2024-02-15T02:15:12;12.25;;;8.70;;
7645;SDS011;3864;48.180;14.178;2024-02-15T02:20:29;16.98;;;9.60;;
7645;SDS011;3864;48.180;14.178;2024-02-15T02:22:57;13.52;;;8.85;;
7645;SDS011;3864;48.180;14.178;2024-02-15T02:25:34;13.63;;;8.73;;
7645;SDS011;3864;48.180;14.178;2024-02-15T02:28:04;11.88;;;7.90;;
7645;SDS011;3864;48.180;14.178;2024-02-15T02:30:33;12.68;;;8.60;;
7645;SDS011;3864;48.180;14.178;2024-02-15T02:33:00;14.57;;;8.90;;
7645;SDS011;3864;48.180;14.178;2024-02-15T02:35:27;13.00;;;8.68;;
7645;SDS011;3864;48.180;14.178;2024-02-15T02:37:56;13.90;;;9.63;;
7645;SDS011;3864;48.180;14.178;2024-02-15T02:40:23;13.25;;;8.88;;
7645;SDS011;3864;48.180;14.178;2024-02-15T02:42:52;13.18;;;9.38;;
7645;SDS011;3864;48.180;14.178;2024-02-15T02:45:24;15.73;;;9.32;;
7645;SDS011;3864;48.180;14.178;2024-02-15T02:47:51;13.77;;;9.57;;
7645;SDS011;3864;48.180;14.178;2024-02-15T02:50:19;13.98;;;10.07;;
7645;SDS011;3864;48.180;14.178;2024-02-15T02:52:47;14.63;;;10.75;;
7645;SDS011;3864;48.180;14.178;2024-02-15T02:55:15;15.27;;;10.38;;
7645;SDS011;3864;48.180;14.178;2024-02-15T02:57:42;15.52;;;10.25;;
7645;SDS011;3864;48.180;14.178;2024-02-15T03:00:12;15.98;;;10.52;;
7645;SDS011;3864;48.180;14.178;2024-02-15T03:02:41;14.77;;;11.00;;
7645;SDS011;3864;48.180;14.178;2024-02-15T03:05:12;15.23;;;9.85;;
7645;SDS011;3864;48.180;14.178;2024-02-15T03:07:46;13.43;;;10.23;;
7645;SDS011;3864;48.180;14.178;2024-02-15T03:10:13;16.85;;;9.95;;
7645;SDS011;3864;48.180;14.178;2024-02-15T03:12:41;19.20;;;11.05;;
7645;SDS011;3864;48.180;14.178;2024-02-15T03:15:13;13.27;;;10.57;;
7645;SDS011;3864;48.180;14.178;2024-02-15T03:17:43;14.48;;;10.55;;
7645;SDS011;3864;48.180;14.178;2024-02-15T03:20:12;13.02;;;9.45;;
7645;SDS011;3864;48.180;14.178;2024-02-15T03:22:50;17.10;;;10.35;;
7645;SDS011;3864;48.180;14.178;2024-02-15T03:25:18;13.90;;;9.52;;
7645;SDS011;3864;48.180;14.178;2024-02-15T03:27:48;14.48;;;10.02;;
7645;SDS011;3864;48.180;14.178;2024-02-15T03:30:18;13.13;;;9.02;;
7645;SDS011;3864;48.180;14.178;2024-02-15T03:32:46;15.48;;;9.88;;
7645;SDS011;3864;48.180;14.178;2024-02-15T03:35:13;11.82;;;8.90;;
7645;SDS011;3864;48.180;14.178;2024-02-15T03:37:41;12.40;;;9.45;;
7645;SDS011;3864;48.180;14.178;2024-02-15T03:40:08;15.55;;;9.02;;
7645;SDS011;3864;48.180;14.178;2024-02-15T03:42:35;14.90;;;9.90;;
7645;SDS011;3864;48.180;14.178;2024-02-15T03:45:03;13.80;;;9.20;;
7645;SDS011;3864;48.180;14.178;2024-02-15T03:47:32;12.25;;;8.63;;
7645;SDS011;3864;48.180;14.178;2024-02-15T03:50:00;14.85;;;8.80;;
7645;SDS011;3864;48.180;14.178;2024-02-15T03:52:28;13.32;;;9.25;;
7645;SDS011;3864;48.180;14.178;2024-02-15T03:54:55;14.63;;;9.88;;
7645;SDS011;3864;48.180;14.178;2024-02-15T03:57:23;16.95;;;10.75;;
7645;SDS011;3864;48.180;14.178;2024-02-15T03:59:50;14.55;;;10.65;;
7645;SDS011;3864;48.180;14.178;2024-02-15T04:02:18;13.82;;;10.32;;
7645;SDS011;3864;48.180;14.178;2024-02-15T04:04:47;16.70;;;9.88;;
7645;SDS011;3864;48.180;14.178;2024-02-15T04:07:14;13.65;;;9.93;;
7645;SDS011;3864;48.180;14.178;2024-02-15T04:09:42;14.52;;;10.23;;
7645;SDS011;3864;48.180;14.178;2024-02-15T04:12:09;12.95;;;9.80;;
7645;SDS011;3864;48.180;14.178;2024-02-15T04:14:36;13.52;;;10.10;;
7645;SDS011;3864;48.180;14.178;2024-02-15T04:17:06;13.63;;;10.05;;
7645;SDS011;3864;48.180;14.178;2024-02-15T04:19:33;15.75;;;10.05;;
7645;SDS011;3864;48.180;14.178;2024-02-15T04:22:04;13.43;;;9.65;;
7645;SDS011;3864;48.180;14.178;2024-02-15T04:24:32;16.88;;;10.48;;
7645;SDS011;3864;48.180;14.178;2024-02-15T04:26:59;11.90;;;9.27;;
7645;SDS011;3864;48.180;14.178;2024-02-15T04:29:26;14.13;;;9.20;;
7645;SDS011;3864;48.180;14.178;2024-02-15T04:31:54;13.48;;;9.35;;
7645;SDS011;3864;48.180;14.178;2024-02-15T04:34:21;14.73;;;9.02;;
7645;SDS011;3864;48.180;14.178;2024-02-15T04:36:48;15.55;;;9.13;;
7645;SDS011;3864;48.180;14.178;2024-02-15T04:39:17;18.35;;;9.77;;
7645;SDS011;3864;48.180;14.178;2024-02-15T04:41:49;15.63;;;8.93;;
7645;SDS011;3864;48.180;14.178;2024-02-15T04:44:17;15.35;;;9.73;;
7645;SDS011;3864;48.180;14.178;2024-02-15T04:46:45;13.23;;;9.02;;
7645;SDS011;3864;48.180;14.178;2024-02-15T04:49:12;14.73;;;10.38;;
7645;SDS011;3864;48.180;14.178;2024-02-15T04:51:47;17.90;;;10.77;;
7645;SDS011;3864;48.180;14.178;2024-02-15T04:54:19;13.98;;;9.75;;
7645;SDS011;3864;48.180;14.178;2024-02-15T04:56:47;16.52;;;10.63;;
7645;SDS011;3864;48.180;14.178;2024-02-15T04:59:33;16.15;;;10.38;;
7645;SDS011;3864;48.180;14.178;2024-02-15T05:02:24;17.13;;;10.35;;
7645;SDS011;3864;48.180;14.178;2024-02-15T05:04:52;14.48;;;10.27;;
7645;SDS011;3864;48.180;14.178;2024-02-15T05:07:21;18.95;;;11.10;;
7645;SDS011;3864;48.180;14.178;2024-02-15T05:09:50;16.30;;;11.45;;
7645;SDS011;3864;48.180;14.178;2024-02-15T05:12:27;15.25;;;10.80;;
7645;SDS011;3864;48.180;14.178;2024-02-15T05:14:56;15.35;;;10.23;;
7645;SDS011;3864;48.180;14.178;2024-02-15T05:17:26;14.90;;;10.30;;
7645;SDS011;3864;48.180;14.178;2024-02-15T05:20:10;17.48;;;10.75;;
7645;SDS011;3864;48.180;14.178;2024-02-15T05:22:38;16.30;;;11.07;;
7645;SDS011;3864;48.180;14.178;2024-02-15T05:25:10;16.88;;;10.10;;
7645;SDS011;3864;48.180;14.178;2024-02-15T05:27:38;14.32;;;10.98;;
7645;SDS011;3864;48.180;14.178;2024-02-15T05:30:07;16.50;;;10.50;;
7645;SDS011;3864;48.180;14.178;2024-02-15T05:32:36;16.23;;;10.82;;
7645;SDS011;3864;48.180;14.178;2024-02-15T05:35:08;17.23;;;10.25;;
7645;SDS011;3864;48.180;14.178;2024-02-15T05:37:36;15.05;;;10.23;;
7645;SDS011;3864;48.180;14.178;2024-02-15T05:40:04;12.45;;;10.15;;
7645;SDS011;3864;48.180;14.178;2024-02-15T05:42:34;14.15;;;10.32;;
7645;SDS011;3864;48.180;14.178;2024-02-15T05:45:24;18.20;;;11.00;;
7645;SDS011;3864;48.180;14.178;2024-02-15T05:47:57;15.90;;;11.70;;
7645;SDS011;3864;48.180;14.178;2024-02-15T05:50:25;16.80;;;11.88;;
7645;SDS011;3864;48.180;14.178;2024-02-15T05:52:54;20.80;;;11.85;;
7645;SDS011;3864;48.180;14.178;2024-02-15T05:55:25;19.35;;;11.93;;
7645;SDS011;3864;48.180;14.178;2024-02-15T05:58:05;18.67;;;12.18;;
7645;SDS011;3864;48.180;14.178;2024-02-15T06:00:39;18.08;;;11.25;;
7645;SDS011;3864;48.180;14.178;2024-02-15T06:03:14;19.63;;;12.25;;
7645;SDS011;3864;48.180;14.178;2024-02-15T06:05:42;20.35;;;13.10;;
7645;SDS011;3864;48.180;14.178;2024-02-15T06:08:10;18.05;;;11.77;;
7645;SDS011;3864;48.180;14.178;2024-02-15T06:10:38;17.90;;;12.23;;
7645;SDS011;3864;48.180;14.178;2024-02-15T06:13:07;18.88;;;11.85;;
7645;SDS011;3864;48.180;14.178;2024-02-15T06:15:37;17.90;;;11.48;;
7645;SDS011;3864;48.180;14.178;2024-02-15T06:18:04;18.73;;;12.05;;
7645;SDS011;3864;48.180;14.178;2024-02-15T06:20:34;15.50;;;11.27;;
7645;SDS011;3864;48.180;14.178;2024-02-15T06:23:04;17.00;;;11.13;;
7645;SDS011;3864;48.180;14.178;2024-02-15T06:25:33;15.45;;;10.80;;
7645;SDS011;3864;48.180;14.178;2024-02-15T06:28:00;17.17;;;11.25;;
7645;SDS011;3864;48.180;14.178;2024-02-15T06:30:40;21.48;;;12.98;;
7645;SDS011;3864;48.180;14.178;2024-02-15T06:33:24;17.95;;;12.00;;
7645;SDS011;3864;48.180;14.178;2024-02-15T06:36:09;16.77;;;11.75;;
7645;SDS011;3864;48.180;14.178;2024-02-15T06:38:53;18.33;;;11.77;;
7645;SDS011;3864;48.180;14.178;2024-02-15T06:41:38;18.70;;;12.27;;
7645;SDS011;3864;48.180;14.178;2024-02-15T06:44:08;17.27;;;10.70;;
7645;SDS011;3864;48.180;14.178;2024-02-15T06:46:37;15.30;;;11.05;;
7645;SDS011;3864;48.180;14.178;2024-02-15T06:49:04;15.00;;;10.88;;
7645;SDS011;3864;48.180;14.178;2024-02-15T06:51:31;17.33;;;11.15;;
7645;SDS011;3864;48.180;14.178;2024-02-15T06:53:59;15.77;;;11.27;;
7645;SDS011;3864;48.180;14.178;2024-02-15T06:56:26;16.15;;;10.73;;
7645;SDS011;3864;48.180;14.178;2024-02-15T06:58:55;15.30;;;10.48;;
7645;SDS011;3864;48.180;14.178;2024-02-15T07:01:23;17.65;;;11.18;;
7645;SDS011;3864;48.180;14.178;2024-02-15T07:03:55;16.17;;;11.65;;
7645;SDS011;3864;48.180;14.178;2024-02-15T07:06:34;17.45;;;10.82;;
7645;SDS011;3864;48.180;14.178;2024-02-15T07:09:02;16.05;;;10.57;;
7645;SDS011;3864;48.180;14.178;2024-02-15T07:11:31;16.17;;;10.82;;
7645;SDS011;3864;48.180;14.178;2024-02-15T07:13:59;16.75;;;11.57;;
7645;SDS011;3864;48.180;14.178;2024-02-15T07:16:26;15.60;;;10.82;;
7645;SDS011;3864;48.180;14.178;2024-02-15T07:18:56;18.08;;;11.50;;
7645;SDS011;3864;48.180;14.178;2024-02-15T07:21:26;13.98;;;10.40;;
7645;SDS011;3864;48.180;14.178;2024-02-15T07:23:54;17.80;;;11.25;;
7645;SDS011;3864;48.180;14.178;2024-02-15T07:26:23;15.15;;;11.25;;
7645;SDS011;3864;48.180;14.178;2024-02-15T07:28:51;18.17;;;10.95;;
7645;SDS011;3864;48.180;14.178;2024-02-15T07:31:19;15.82;;;10.73;;
7645;SDS011;3864;48.180;14.178;2024-02-15T07:33:53;14.93;;;10.02;;
7645;SDS011;3864;48.180;14.178;2024-02-15T07:36:22;14.55;;;10.45;;
7645;SDS011;3864;48.180;14.178;2024-02-15T07:38:50;20.35;;;12.77;;
7645;SDS011;3864;48.180;14.178;2024-02-15T07:44:42;21.77;;;14.27;;
7645;SDS011;3864;48.180;14.178;2024-02-15T07:50:45;16.90;;;12.13;;
7645;SDS011;3864;48.180;14.178;2024-02-15T07:53:16;14.57;;;11.73;;
7645;SDS011;3864;48.180;14.178;2024-02-15T07:55:49;18.50;;;12.73;;
7645;SDS011;3864;48.180;14.178;2024-02-15T07:58:21;16.13;;;11.45;;
7645;SDS011;3864;48.180;14.178;2024-02-15T08:00:59;18.52;;;11.30;;
7645;SDS011;3864;48.180;14.178;2024-02-15T08:03:39;17.35;;;11.85;;
7645;SDS011;3864;48.180;14.178;2024-02-15T08:06:10;17.35;;;12.10;;
7645;SDS011;3864;48.180;14.178;2024-02-15T08:08:39;17.77;;;11.50;;
7645;SDS011;3864;48.180;14.178;2024-02-15T08:11:07;18.10;;;11.00;;
7645;SDS011;3864;48.180;14.178;2024-02-15T08:13:40;16.58;;;11.93;;
7645;SDS011;3864;48.180;14.178;2024-02-15T08:16:09;17.13;;;11.88;;
7645;SDS011;3864;48.180;14.178;2024-02-15T08:18:43;15.20;;;10.48;;
7645;SDS011;3864;48.180;14.178;2024-02-15T08:21:24;13.32;;;10.23;;
7645;SDS011;3864;48.180;14.178;2024-02-15T08:23:55;14.52;;;10.10;;
7645;SDS011;3864;48.180;14.178;2024-02-15T08:28:55;16.75;;;10.02;;
7645;SDS011;3864;48.180;14.178;2024-02-15T08:31:22;11.60;;;9.32;;
7645;SDS011;3864;48.180;14.178;2024-02-15T08:33:50;13.73;;;10.45;;
7645;SDS011;3864;48.180;14.178;2024-02-15T08:36:18;16.70;;;10.65;;
7645;SDS011;3864;48.180;14.178;2024-02-15T08:38:46;17.77;;;10.77;;
7645;SDS011;3864;48.180;14.178;2024-02-15T08:41:17;16.45;;;10.43;;
7645;SDS011;3864;48.180;14.178;2024-02-15T08:43:45;20.40;;;12.82;;
7645;SDS011;3864;48.180;14.178;2024-02-15T08:46:13;16.27;;;11.35;;
7645;SDS011;3864;48.180;14.178;2024-02-15T08:48:40;23.15;;;15.43;;
7645;SDS011;3864;48.180;14.178;2024-02-15T08:51:08;20.75;;;12.52;;
7645;SDS011;3864;48.180;14.178;2024-02-15T08:53:35;24.40;;;13.18;;
7645;SDS011;3864;48.180;14.178;2024-02-15T08:56:05;18.55;;;12.10;;
7645;SDS011;3864;48.180;14.178;2024-02-15T08:58:36;17.08;;;11.05;;
7645;SDS011;3864;48.180;14.178;2024-02-15T09:01:05;18.00;;;11.90;;
7645;SDS011;3864;48.180;14.178;2024-02-15T09:03:34;17.73;;;11.18;;
7645;SDS011;3864;48.180;14.178;2024-02-15T09:06:04;17.25;;;12.43;;
7645;SDS011;3864;48.180;14.178;2024-02-15T09:08:32;15.73;;;10.80;;
7645;SDS011;3864;48.180;14.178;2024-02-15T09:11:05;16.63;;;10.95;;
7645;SDS011;3864;48.180;14.178;2024-02-15T09:13:39;15.77;;;10.95;;
7645;SDS011;3864;48.180;14.178;2024-02-15T09:18:37;16.73;;;11.27;;
7645;SDS011;3864;48.180;14.178;2024-02-15T09:21:12;14.35;;;11.50;;
7645;SDS011;3864;48.180;14.178;2024-02-15T09:23:39;15.10;;;10.70;;
7645;SDS011;3864;48.180;14.178;2024-02-15T09:26:06;14.65;;;10.85;;
7645;SDS011;3864;48.180;14.178;2024-02-15T09:28:35;16.73;;;10.90;;
7645;SDS011;3864;48.180;14.178;2024-02-15T09:31:06;16.10;;;11.65;;
7645;SDS011;3864;48.180;14.178;2024-02-15T09:33:36;13.90;;;10.90;;
7645;SDS011;3864;48.180;14.178;2024-02-15T09:36:04;13.85;;;9.70;;
7645;SDS011;3864;48.180;14.178;2024-02-15T09:38:31;14.80;;;10.30;;
7645;SDS011;3864;48.180;14.178;2024-02-15T09:40:59;14.20;;;10.90;;
7645;SDS011;3864;48.180;14.178;2024-02-15T09:43:34;14.10;;;10.73;;
7645;SDS011;3864;48.180;14.178;2024-02-15T09:46:05;12.05;;;9.95;;
7645;SDS011;3864;48.180;14.178;2024-02-15T09:48:33;15.40;;;10.43;;
7645;SDS011;3864;48.180;14.178;2024-02-15T09:51:07;15.13;;;10.63;;
7645;SDS011;3864;48.180;14.178;2024-02-15T09:53:37;17.67;;;11.20;;
7645;SDS011;3864;48.180;14.178;2024-02-15T09:56:05;14.00;;;10.57;;
7645;SDS011;3864;48.180;14.178;2024-02-15T09:58:33;14.98;;;10.95;;
7645;SDS011;3864;48.180;14.178;2024-02-15T10:01:00;15.32;;;9.52;;
7645;SDS011;3864;48.180;14.178;2024-02-15T10:03:50;15.50;;;12.00;;
7645;SDS011;3864;48.180;14.178;2024-02-15T10:06:18;19.80;;;10.70;;
7645;SDS011;3864;48.180;14.178;2024-02-15T10:08:47;11.88;;;9.73;;
7645;SDS011;3864;48.180;14.178;2024-02-15T10:11:15;10.93;;;9.70;;
7645;SDS011;3864;48.180;14.178;2024-02-15T10:13:42;11.10;;;9.10;;
7645;SDS011;3864;48.180;14.178;2024-02-15T10:16:15;13.05;;;9.70;;
7645;SDS011;3864;48.180;14.178;2024-02-15T10:18:43;10.50;;;8.60;;
7645;SDS011;3864;48.180;14.178;2024-02-15T10:21:25;12.40;;;8.85;;
7645;SDS011;3864;48.180;14.178;2024-02-15T10:24:04;11.15;;;9.00;;
7645;SDS011;3864;48.180;14.178;2024-02-15T10:26:32;9.75;;;8.15;;
7645;SDS011;3864;48.180;14.178;2024-02-15T10:29:06;9.38;;;7.50;;
7645;SDS011;3864;48.180;14.178;2024-02-15T10:31:52;12.90;;;8.93;;
7645;SDS011;3864;48.180;14.178;2024-02-15T10:34:20;10.65;;;6.40;;
7645;SDS011;3864;48.180;14.178;2024-02-15T10:36:50;10.07;;;7.53;;
7645;SDS011;3864;48.180;14.178;2024-02-15T10:39:17;10.07;;;7.32;;
7645;SDS011;3864;48.180;14.178;2024-02-15T10:41:46;10.30;;;7.10;;
7645;SDS011;3864;48.180;14.178;2024-02-15T10:44:17;9.75;;;7.50;;
7645;SDS011;3864;48.180;14.178;2024-02-15T10:46:48;10.90;;;7.90;;
7645;SDS011;3864;48.180;14.178;2024-02-15T10:49:17;11.07;;;7.28;;
7645;SDS011;3864;48.180;14.178;2024-02-15T10:51:48;13.32;;;9.70;;
7645;SDS011;3864;48.180;14.178;2024-02-15T10:54:28;9.02;;;7.45;;
7645;SDS011;3864;48.180;14.178;2024-02-15T10:57:15;10.52;;;7.13;;
7645;SDS011;3864;48.180;14.178;2024-02-15T10:59:52;8.77;;;6.90;;
7645;SDS011;3864;48.180;14.178;2024-02-15T11:02:26;9.85;;;7.30;;
7645;SDS011;3864;48.180;14.178;2024-02-15T11:05:15;10.63;;;7.07;;
7645;SDS011;3864;48.180;14.178;2024-02-15T11:10:49;9.13;;;6.88;;
7645;SDS011;3864;48.180;14.178;2024-02-15T11:13:30;9.05;;;6.43;;
7645;SDS011;3864;48.180;14.178;2024-02-15T11:16:04;9.68;;;6.32;;
7645;SDS011;3864;48.180;14.178;2024-02-15T11:19:04;8.07;;;6.63;;
7645;SDS011;3864;48.180;14.178;2024-02-15T11:24:27;8.63;;;6.65;;
7645;SDS011;3864;48.180;14.178;2024-02-15T11:27:23;9.05;;;6.25;;
7645;SDS011;3864;48.180;14.178;2024-02-15T11:29:53;7.90;;;5.97;;
7645;SDS011;3864;48.180;14.178;2024-02-15T11:35:17;8.65;;;5.63;;
7645;SDS011;3864;48.180;14.178;2024-02-15T11:37:52;7.05;;;5.13;;
7645;SDS011;3864;48.180;14.178;2024-02-15T11:43:52;5.63;;;3.83;;
7645;SDS011;3864;48.180;14.178;2024-02-15T11:46:29;7.03;;;4.50;;
7645;SDS011;3864;48.180;14.178;2024-02-15T11:48:59;5.72;;;4.10;;
7645;SDS011;3864;48.180;14.178;2024-02-15T11:51:44;4.65;;;3.83;;
7645;SDS011;3864;48.180;14.178;2024-02-15T11:54:15;5.85;;;4.40;;
7645;SDS011;3864;48.180;14.178;2024-02-15T11:57:14;9.40;;;5.55;;
7645;SDS011;3864;48.180;14.178;2024-02-15T12:00:04;8.07;;;5.78;;
7645;SDS011;3864;48.180;14.178;2024-02-15T12:02:47;8.70;;;6.00;;
7645;SDS011;3864;48.180;14.178;2024-02-15T12:09:03;6.53;;;4.85;;
7645;SDS011;3864;48.180;14.178;2024-02-15T12:14:40;8.20;;;5.78;;
7645;SDS011;3864;48.180;14.178;2024-02-15T12:17:27;7.25;;;5.57;;
7645;SDS011;3864;48.180;14.178;2024-02-15T12:20:10;8.63;;;6.15;;
7645;SDS011;3864;48.180;14.178;2024-02-15T12:22:39;8.63;;;6.20;;
7645;SDS011;3864;48.180;14.178;2024-02-15T12:25:13;7.72;;;6.22;;
7645;SDS011;3864;48.180;14.178;2024-02-15T12:27:58;8.02;;;6.00;;
7645;SDS011;3864;48.180;14.178;2024-02-15T12:30:32;8.75;;;6.40;;
7645;SDS011;3864;48.180;14.178;2024-02-15T12:33:20;9.63;;;7.05;;
7645;SDS011;3864;48.180;14.178;2024-02-15T12:36:03;8.75;;;6.22;;
7645;SDS011;3864;48.180;14.178;2024-02-15T12:38:31;7.78;;;5.63;;
7645;SDS011;3864;48.180;14.178;2024-02-15T12:40:59;8.80;;;6.40;;
7645;SDS011;3864;48.180;14.178;2024-02-15T12:43:27;8.45;;;5.97;;
7645;SDS011;3864;48.180;14.178;2024-02-15T12:45:55;7.75;;;6.03;;
7645;SDS011;3864;48.180;14.178;2024-02-15T12:48:24;7.15;;;5.70;;
7645;SDS011;3864;48.180;14.178;2024-02-15T12:50:54;10.95;;;5.90;;
7645;SDS011;3864;48.180;14.178;2024-02-15T12:53:22;8.32;;;6.20;;
7645;SDS011;3864;48.180;14.178;2024-02-15T12:55:52;6.90;;;5.43;;
7645;SDS011;3864;48.180;14.178;2024-02-15T12:58:22;9.23;;;5.80;;
7645;SDS011;3864;48.180;14.178;2024-02-15T13:00:54;6.55;;;5.22;;
7645;SDS011;3864;48.180;14.178;2024-02-15T13:03:25;7.68;;;5.03;;
7645;SDS011;3864;48.180;14.178;2024-02-15T13:05:52;6.20;;;4.47;;
7645;SDS011;3864;48.180;14.178;2024-02-15T13:08:19;7.13;;;4.82;;
7645;SDS011;3864;48.180;14.178;2024-02-15T13:10:47;6.38;;;4.80;;
7645;SDS011;3864;48.180;14.178;2024-02-15T13:13:16;6.78;;;4.95;;
7645;SDS011;3864;48.180;14.178;2024-02-15T13:15:51;6.45;;;5.00;;
7645;SDS011;3864;48.180;14.178;2024-02-15T13:18:22;7.65;;;5.13;;
7645;SDS011;3864;48.180;14.178;2024-02-15T13:21:08;6.93;;;4.70;;
7645;SDS011;3864;48.180;14.178;2024-02-15T13:23:42;6.00;;;4.60;;
7645;SDS011;3864;48.180;14.178;2024-02-15T13:26:11;7.13;;;4.40;;
7645;SDS011;3864;48.180;14.178;2024-02-15T13:28:40;6.32;;;4.40;;
7645;SDS011;3864;48.180;14.178;2024-02-15T13:31:09;6.15;;;4.13;;
7645;SDS011;3864;48.180;14.178;2024-02-15T13:33:45;7.70;;;5.55;;
7645;SDS011;3864;48.180;14.178;2024-02-15T13:36:14;7.57;;;4.57;;
7645;SDS011;3864;48.180;14.178;2024-02-15T13:38:42;8.45;;;4.40;;
7645;SDS011;3864;48.180;14.178;2024-02-15T13:41:09;7.00;;;4.50;;
7645;SDS011;3864;48.180;14.178;2024-02-15T13:43:36;7.05;;;5.07;;
7645;SDS011;3864;48.180;14.178;2024-02-15T13:46:06;8.63;;;5.32;;
7645;SDS011;3864;48.180;14.178;2024-02-15T13:48:36;8.13;;;4.72;;
7645;SDS011;3864;48.180;14.178;2024-02-15T13:51:10;7.85;;;4.43;;
7645;SDS011;3864;48.180;14.178;2024-02-15T13:53:45;8.95;;;5.60;;
7645;SDS011;3864;48.180;14.178;2024-02-15T13:56:12;9.15;;;5.65;;
7645;SDS011;3864;48.180;14.178;2024-02-15T13:58:47;9.00;;;5.90;;
7645;SDS011;3864;48.180;14.178;2024-02-15T14:01:21;9.18;;;5.90;;
7645;SDS011;3864;48.180;14.178;2024-02-15T14:03:59;7.60;;;4.82;;
7645;SDS011;3864;48.180;14.178;2024-02-15T14:06:39;7.97;;;5.28;;
7645;SDS011;3864;48.180;14.178;2024-02-15T14:09:09;6.85;;;4.57;;
7645;SDS011;3864;48.180;14.178;2024-02-15T14:11:37;11.15;;;5.40;;
7645;SDS011;3864;48.180;14.178;2024-02-15T14:14:05;7.47;;;5.07;;
7645;SDS011;3864;48.180;14.178;2024-02-15T14:16:41;9.73;;;5.07;;
7645;SDS011;3864;48.180;14.178;2024-02-15T14:19:25;7.25;;;5.47;;
7645;SDS011;3864;48.180;14.178;2024-02-15T14:21:54;8.90;;;5.65;;
7645;SDS011;3864;48.180;14.178;2024-02-15T14:24:21;7.00;;;4.53;;
7645;SDS011;3864;48.180;14.178;2024-02-15T14:26:50;7.32;;;5.22;;
7645;SDS011;3864;48.180;14.178;2024-02-15T14:29:17;9.43;;;5.03;;
7645;SDS011;3864;48.180;14.178;2024-02-15T14:31:52;7.68;;;5.30;;
7645;SDS011;3864;48.180;14.178;2024-02-15T14:34:37;6.38;;;4.72;;
7645;SDS011;3864;48.180;14.178;2024-02-15T14:37:07;6.63;;;4.40;;
7645;SDS011;3864;48.180;14.178;2024-02-15T14:39:35;7.28;;;4.22;;
7645;SDS011;3864;48.180;14.178;2024-02-15T14:42:02;5.53;;;3.58;;
7645;SDS011;3864;48.180;14.178;2024-02-15T14:44:29;6.03;;;3.80;;
7645;SDS011;3864;48.180;14.178;2024-02-15T14:46:57;6.70;;;3.53;;
7645;SDS011;3864;48.180;14.178;2024-02-15T14:49:24;5.32;;;3.30;;
7645;SDS011;3864;48.180;14.178;2024-02-15T14:51:51;6.93;;;3.80;;
7645;SDS011;3864;48.180;14.178;2024-02-15T14:54:20;10.35;;;3.88;;
7645;SDS011;3864;48.180;14.178;2024-02-15T14:56:47;5.65;;;3.28;;
7645;SDS011;3864;48.180;14.178;2024-02-15T14:59:14;5.03;;;3.38;;
7645;SDS011;3864;48.180;14.178;2024-02-15T15:01:42;5.05;;;3.20;;
7645;SDS011;3864;48.180;14.178;2024-02-15T15:04:09;3.55;;;2.60;;
7645;SDS011;3864;48.180;14.178;2024-02-15T15:06:37;7.10;;;3.20;;
7645;SDS011;3864;48.180;14.178;2024-02-15T15:09:23;5.97;;;3.40;;
7645;SDS011;3864;48.180;14.178;2024-02-15T15:12:08;6.32;;;3.70;;
7645;SDS011;3864;48.180;14.178;2024-02-15T15:14:52;7.32;;;4.00;;
7645;SDS011;3864;48.180;14.178;2024-02-15T15:17:20;5.80;;;3.95;;
7645;SDS011;3864;48.180;14.178;2024-02-15T15:19:47;6.57;;;3.53;;
7645;SDS011;3864;48.180;14.178;2024-02-15T15:22:14;4.93;;;3.50;;
7645;SDS011;3864;48.180;14.178;2024-02-15T15:24:46;5.80;;;4.00;;
7645;SDS011;3864;48.180;14.178;2024-02-15T15:27:14;4.50;;;3.50;;
7645;SDS011;3864;48.180;14.178;2024-02-15T15:29:41;6.47;;;3.38;;
7645;SDS011;3864;48.180;14.178;2024-02-15T15:32:08;6.22;;;3.70;;
7645;SDS011;3864;48.180;14.178;2024-02-15T15:34:35;6.55;;;3.35;;
7645;SDS011;3864;48.180;14.178;2024-02-15T15:37:03;4.63;;;3.03;;
7645;SDS011;3864;48.180;14.178;2024-02-15T15:39:32;4.50;;;3.10;;
7645;SDS011;3864;48.180;14.178;2024-02-15T15:42:03;5.03;;;2.72;;
7645;SDS011;3864;48.180;14.178;2024-02-15T15:44:32;4.57;;;2.80;;